createdAt,value
2019-02-07T00:00:04.976Z,9.89
2019-02-07T00:05:10.552Z,8.82
2019-02-07T00:10:16.548Z,8.97
2019-02-07T00:15:22.568Z,8.02
2019-02-07T00:20:28.713Z,8.66
2019-02-07T00:25:34.760Z,12.82
2019-02-07T00:30:40.769Z,8.63
2019-02-07T00:35:46.806Z,12.13
2019-02-07T00:40:52.840Z,8.71
2019-02-07T00:45:58.894Z,8.26
2019-02-07T00:51:04.897Z,12.55
2019-02-07T00:56:10.949Z,8.15
2019-02-07T01:01:16.953Z,8.62
2019-02-07T01:06:22.975Z,8.49
2019-02-07T01:11:28.974Z,8.36
2019-02-07T01:16:34.971Z,13.46
2019-02-07T01:21:40.954Z,8.98
2019-02-07T01:26:46.946Z,9.39
2019-02-07T01:31:52.951Z,9.67
2019-02-07T01:36:59.010Z,9.93
2019-02-07T01:42:05.014Z,10.54
2019-02-07T01:47:11.045Z,16.10
2019-02-07T01:52:17.028Z,11.00
2019-02-07T01:57:23.009Z,10.87
2019-02-07T02:02:29.005Z,10.93
2019-02-07T02:07:35.052Z,15.29
2019-02-07T02:12:41.024Z,10.54
2019-02-07T02:17:47.127Z,10.57
2019-02-07T02:22:52.992Z,10.77
2019-02-07T02:27:59.012Z,10.58
2019-02-07T02:33:05.028Z,10.25
2019-02-07T02:38:11.034Z,14.72
2019-02-07T02:43:17.100Z,15.69
2019-02-07T02:48:23.148Z,14.99
2019-02-07T02:53:29.143Z,10.05
2019-02-07T02:58:35.121Z,15.13
2019-02-07T03:03:41.166Z,14.32
2019-02-07T03:08:47.174Z,9.85
2019-02-07T03:13:53.162Z,15.55
2019-02-07T03:18:59.155Z,14.91
2019-02-07T03:24:05.170Z,10.41
2019-02-07T03:29:11.167Z,10.43
2019-02-07T03:34:17.208Z,16.38
2019-02-07T03:39:23.223Z,11.35
2019-02-07T03:44:29.243Z,15.47
2019-02-07T03:49:35.257Z,11.13
2019-02-07T03:54:41.225Z,11.16
2019-02-07T03:59:47.296Z,10.34
2019-02-07T04:04:53.313Z,10.81
2019-02-07T04:09:59.312Z,11.59
2019-02-07T04:15:05.311Z,11.19
2019-02-07T04:20:11.322Z,10.77
2019-02-07T04:25:17.318Z,16.84
2019-02-07T04:30:23.313Z,10.83
2019-02-07T04:35:29.416Z,10.80
2019-02-07T04:40:35.460Z,11.01
2019-02-07T04:45:41.537Z,10.39
2019-02-07T04:50:47.545Z,10.44
2019-02-07T04:55:53.702Z,10.25
2019-02-07T05:00:59.688Z,10.59
2019-02-07T05:06:05.697Z,10.52
2019-02-07T05:11:11.723Z,15.89
2019-02-07T05:16:17.768Z,10.83
2019-02-07T05:21:23.789Z,10.70
2019-02-07T05:26:29.771Z,10.60
2019-02-07T05:31:35.774Z,10.37
2019-02-07T05:36:42.411Z,15.39
2019-02-07T05:41:47.420Z,11.21
2019-02-07T05:46:53.449Z,10.25
2019-02-07T05:51:59.514Z,9.38
2019-02-07T05:57:05.530Z,9.94
2019-02-07T06:02:12.089Z,14.05
2019-02-07T06:07:18.098Z,9.55
2019-02-07T06:12:24.096Z,13.54
2019-02-07T06:17:30.182Z,9.27
2019-02-07T06:22:36.225Z,8.27
2019-02-07T06:27:42.229Z,8.25
2019-02-07T06:32:48.278Z,8.47
2019-02-07T06:37:54.334Z,9.01
2019-02-07T06:43:00.436Z,8.80
2019-02-07T06:48:06.501Z,8.92
2019-02-07T06:53:12.493Z,12.84
2019-02-07T06:58:18.481Z,9.50
2019-02-07T07:03:24.503Z,9.33
2019-02-07T07:08:30.510Z,14.94
2019-02-07T07:13:36.506Z,10.54
2019-02-07T07:18:42.886Z,10.05
2019-02-07T07:23:48.948Z,10.43
2019-02-07T07:28:55.067Z,10.12
2019-02-07T07:34:01.098Z,10.82
2019-02-07T07:39:07.156Z,11.16
2019-02-07T07:44:13.170Z,17.41
2019-02-07T07:49:19.185Z,11.49
2019-02-07T07:54:25.285Z,11.44
2019-02-07T07:59:31.322Z,17.68
2019-02-07T08:04:37.325Z,12.71
2019-02-07T08:09:43.336Z,17.34
2019-02-07T08:14:52.271Z,12.83
2019-02-07T08:19:58.298Z,12.03
2019-02-07T08:25:04.352Z,11.49
2019-02-07T08:30:10.440Z,10.99
2019-02-07T08:35:16.587Z,10.24
2019-02-07T08:40:22.608Z,10.65
2019-02-07T08:45:28.617Z,9.16
2019-02-07T08:50:34.589Z,6.76
2019-02-07T08:55:40.644Z,5.92
2019-02-07T09:00:46.673Z,5.01
2019-02-07T09:05:52.725Z,4.82
2019-02-07T09:10:58.789Z,4.39
2019-02-07T09:16:04.933Z,3.82
2019-02-07T09:21:10.935Z,5.50
2019-02-07T09:26:16.996Z,3.88
2019-02-07T09:31:23.054Z,6.67
2019-02-07T09:36:29.090Z,3.91
2019-02-07T09:41:35.111Z,4.63
2019-02-07T09:46:41.117Z,3.99
2019-02-07T09:51:47.153Z,4.27
2019-02-07T09:56:53.247Z,4.38
2019-02-07T10:01:59.366Z,6.84
2019-02-07T10:07:05.442Z,4.07
2019-02-07T10:12:11.673Z,3.97
2019-02-07T10:17:17.748Z,5.58
2019-02-07T10:22:23.767Z,5.65
2019-02-07T10:27:29.807Z,3.62
2019-02-07T10:32:35.813Z,4.82
2019-02-07T10:37:41.827Z,2.75
2019-02-07T10:42:47.821Z,2.66
2019-02-07T10:47:53.896Z,3.63
2019-02-07T10:52:59.951Z,3.50
2019-02-07T10:58:05.910Z,3.35
2019-02-07T11:03:11.908Z,1.96
2019-02-07T11:08:17.924Z,2.08
2019-02-07T11:13:23.983Z,1.92
2019-02-07T11:18:29.980Z,2.25
2019-02-07T11:23:35.964Z,1.46
2019-02-07T11:28:42.226Z,1.84
2019-02-07T11:33:48.270Z,1.58
2019-02-07T11:38:54.380Z,2.50
2019-02-07T11:44:00.357Z,1.49
2019-02-07T11:49:07.106Z,1.79
2019-02-07T11:54:11.896Z,2.57
2019-02-07T11:59:17.934Z,2.31
2019-02-07T12:04:23.928Z,2.11
2019-02-07T12:09:29.998Z,1.91
2019-02-07T12:14:36.254Z,3.33
2019-02-07T12:19:42.262Z,2.04
2019-02-07T12:24:48.365Z,2.21
2019-02-07T12:29:54.413Z,2.11
2019-02-07T12:35:00.475Z,1.93
2019-02-07T12:40:06.515Z,2.93
2019-02-07T12:45:12.568Z,2.27
2019-02-07T12:50:18.614Z,1.82
2019-02-07T12:55:26.767Z,1.69
2019-02-07T13:00:30.170Z,1.43
2019-02-07T13:05:36.307Z,2.41
2019-02-07T13:10:42.345Z,3.24
2019-02-07T13:15:48.374Z,1.98
2019-02-07T13:20:54.488Z,1.93
2019-02-07T13:26:00.539Z,1.68
2019-02-07T13:31:06.534Z,2.50
2019-02-07T13:36:12.673Z,2.76
2019-02-07T13:41:18.637Z,1.83
2019-02-07T13:46:24.639Z,2.68
2019-02-07T13:51:30.657Z,1.63
2019-02-07T13:56:36.993Z,2.31
2019-02-07T14:01:43.008Z,1.83
2019-02-07T14:06:49.023Z,1.62
2019-02-07T14:11:55.129Z,2.30
2019-02-07T14:17:01.195Z,1.55
2019-02-07T14:22:07.221Z,1.49
2019-02-07T14:27:13.293Z,1.45
2019-02-07T14:32:19.472Z,1.58
2019-02-07T14:37:25.534Z,1.72
2019-02-07T14:42:31.720Z,1.98
2019-02-07T14:47:37.770Z,1.53
2019-02-07T14:52:43.866Z,1.58
2019-02-07T14:57:49.899Z,1.60
2019-02-07T15:02:55.976Z,1.63
2019-02-07T15:08:02.145Z,2.24
2019-02-07T15:13:08.250Z,1.54
2019-02-07T15:18:14.403Z,1.42
2019-02-07T15:23:19.950Z,1.26
2019-02-07T15:28:26.013Z,5.93
2019-02-07T15:33:33.377Z,1.93
2019-02-07T15:38:39.815Z,1.56
2019-02-07T15:43:46.009Z,2.68
2019-02-07T15:48:52.137Z,1.91
2019-02-07T15:53:58.494Z,2.16
2019-02-07T15:59:04.539Z,1.38
2019-02-07T16:04:10.583Z,3.25
2019-02-07T16:09:16.578Z,6.94
2019-02-07T16:14:22.575Z,2.48
2019-02-07T16:19:28.652Z,1.58
2019-02-07T16:24:34.743Z,1.61
2019-02-07T16:29:40.783Z,3.14
2019-02-07T16:34:46.824Z,3.13
2019-02-07T16:39:52.880Z,2.36
2019-02-07T16:44:58.951Z,1.71
2019-02-07T16:50:05.070Z,1.73
2019-02-07T16:55:11.157Z,1.57
2019-02-07T17:00:17.254Z,2.85
2019-02-07T17:05:23.294Z,1.84
2019-02-07T17:10:29.380Z,2.08
2019-02-07T17:15:35.463Z,2.99
2019-02-07T17:20:41.477Z,3.07
2019-02-07T17:25:47.557Z,1.76
2019-02-07T17:30:53.596Z,2.00
2019-02-07T17:35:59.788Z,2.89
2019-02-07T17:41:05.875Z,1.82
2019-02-07T17:46:11.933Z,1.94
2019-02-07T17:51:23.333Z,2.12
2019-02-07T17:56:23.512Z,1.77
2019-02-07T18:01:29.670Z,1.90
2019-02-07T18:06:35.743Z,1.85
2019-02-07T18:11:43.398Z,3.59
2019-02-07T18:16:50.627Z,3.19
2019-02-07T18:21:57.339Z,3.36
2019-02-07T18:27:02.143Z,1.78
2019-02-07T18:32:08.131Z,1.97
2019-02-07T18:37:14.543Z,2.51
2019-02-07T18:42:20.585Z,1.86
2019-02-07T18:47:26.653Z,7.46
2019-02-07T18:52:32.783Z,3.90
2019-02-07T18:57:39.723Z,2.28
2019-02-07T19:02:48.009Z,2.18
2019-02-07T19:07:58.650Z,1.46
2019-02-07T19:12:54.687Z,1.49
2019-02-07T19:18:00.819Z,1.99
2019-02-07T19:23:06.826Z,3.02
2019-02-07T19:28:12.845Z,2.59
2019-02-07T19:33:18.882Z,1.53
2019-02-07T19:38:26.215Z,1.51
2019-02-07T19:43:32.358Z,2.42
2019-02-07T19:48:38.463Z,1.73
2019-02-07T19:53:44.527Z,1.60
2019-02-07T19:58:50.565Z,2.41
2019-02-07T20:03:56.652Z,1.66
2019-02-07T20:09:02.623Z,1.53
2019-02-07T20:14:08.703Z,1.38
2019-02-07T20:19:14.773Z,1.50
2019-02-07T20:24:20.798Z,1.31
2019-02-07T20:29:26.918Z,1.21
2019-02-07T20:34:32.956Z,1.19
2019-02-07T20:39:39.010Z,1.21
2019-02-07T20:44:45.077Z,2.02
2019-02-07T20:49:51.174Z,1.02
2019-02-07T20:54:57.233Z,2.49
2019-02-07T21:00:03.234Z,2.02
2019-02-07T21:05:09.247Z,1.69
2019-02-07T21:10:15.332Z,1.12
2019-02-07T21:15:21.405Z,1.17
2019-02-07T21:20:27.444Z,1.16
2019-02-07T21:25:33.508Z,1.49
2019-02-07T21:30:39.459Z,1.76
2019-02-07T21:35:45.611Z,1.24
2019-02-07T21:40:51.636Z,1.69
2019-02-07T21:45:57.696Z,1.47
2019-02-07T21:51:03.704Z,1.16
2019-02-07T21:56:09.720Z,0.81
2019-02-07T22:01:15.802Z,1.00
2019-02-07T22:06:21.808Z,0.87
2019-02-07T22:11:27.837Z,1.07
2019-02-07T22:16:33.901Z,0.97
2019-02-07T22:21:39.945Z,0.98
2019-02-07T22:26:45.991Z,1.20
2019-02-07T22:31:52.065Z,1.57
2019-02-07T22:36:58.230Z,1.72
2019-02-07T22:42:04.234Z,1.77
2019-02-07T22:47:10.285Z,1.27
2019-02-07T22:52:16.311Z,1.56
2019-02-07T22:57:22.399Z,0.92
2019-02-07T23:02:28.393Z,1.20
2019-02-07T23:07:34.402Z,1.33
2019-02-07T23:12:40.401Z,2.11
2019-02-07T23:17:46.460Z,1.16
2019-02-07T23:22:52.533Z,1.13
2019-02-07T23:27:58.567Z,1.25
2019-02-07T23:33:04.589Z,1.29
2019-02-07T23:38:10.630Z,2.15
2019-02-07T23:43:16.632Z,1.89
2019-02-07T23:48:22.718Z,1.68
2019-02-07T23:53:28.734Z,1.70
2019-02-07T23:58:34.867Z,1.36
